Strona główna
METAR-TAF:

METAR-TAF

Lotnisko :

Port lotniczy Szawle

Szawle, Litwa

Szerokość geograficzna: 55-53-38N, Długość geograficzna: 023-23-42E, wysokość: 135 m

Aktualna obserwacja pogody

Raport powstał 33 minut temu, godzina 01:50 UTC
Wiatr 8 kt od zachodnio-południowy zachód
Temperatura 1°C
Wilgotność 86%
Ciśnienie 1011 hPa
Widzialność 10 km lub więcej
Brak chmur poniżej 1500 m i brak chmur cumulonimbus

METAR: EYSA 040150Z 24008KT CAVOK 01/M01 Q1011 BLU NOSIG

czas: 05:23 (02:23 UTC)

Prognoza

Raport powstał 3 godziny i 23 minut temu, godzina 23:00 UTC
Prognoza ważna od 04 godzina 00 UTC do 04 godzina 09 UTC
Wiatr 16 kt od zachodnio-południowy zachód
Widzialność: 9000 m
Przerywane chmury na wysokości 3000 ft
Przejściowo
od 04 godzina 00 UTC do 04 godzina 06 UTC
Rozproszone chmury na wysokości 2000 ft, Cumulonimbus.

TAF: EYSA 032300Z 0400/0409 24016KT 9000 BKN030 TEMPO 0400/0406 SCT020CB

Obserwacja i prognoza pogody dla ponad 4000 lotnisk (raport METAR i TAF).

Dostępne stacje oznaczono żółtymi i czerwonymi punktami na mapie.

Najedź kursorem aby zobaczyć nazwę stacji.

Kliknij aby zobaczyć obserwacje i prognozy pogody.

Aby zmienić mapę: kliknij na zielony przycisk z czarnym krzyżykiem, aby powiększyć; na zielony przycisk z myślnikiem, aby pomniejszyć; na zielone strzałki, aby przejść do map sąsiednich.


METAR-TAF: